createdAt,value
2018-10-18T00:01:49.843Z,65.80
2018-10-18T00:06:42.388Z,65.77
2018-10-18T00:11:35.013Z,65.78
2018-10-18T00:16:27.897Z,65.73
2018-10-18T00:21:20.513Z,65.72
2018-10-18T00:26:13.247Z,65.60
2018-10-18T00:31:05.851Z,66.20
2018-10-18T00:35:58.497Z,66.49
2018-10-18T00:40:51.069Z,66.33
2018-10-18T00:45:43.895Z,66.72
2018-10-18T00:50:36.558Z,66.59
2018-10-18T00:55:29.173Z,67.17
2018-10-18T01:00:21.787Z,66.90
2018-10-18T01:05:14.527Z,66.19
2018-10-18T01:10:07.150Z,66.71
2018-10-18T01:14:59.804Z,66.91
2018-10-18T01:19:52.649Z,67.00
2018-10-18T01:24:45.283Z,67.05
2018-10-18T01:29:37.981Z,66.82
2018-10-18T01:34:30.612Z,67.20
2018-10-18T01:39:23.281Z,67.69
2018-10-18T01:44:15.994Z,67.06
2018-10-18T01:49:08.650Z,67.12
2018-10-18T01:54:01.277Z,67.58
2018-10-18T01:58:53.883Z,67.88
2018-10-18T02:03:46.547Z,67.80
2018-10-18T02:08:39.174Z,67.74
2018-10-18T02:13:31.823Z,67.71
2018-10-18T02:18:24.493Z,68.14
2018-10-18T02:23:17.092Z,68.05
2018-10-18T02:28:09.723Z,67.87
2018-10-18T02:33:02.343Z,67.56
2018-10-18T02:37:54.970Z,67.74
2018-10-18T02:42:47.606Z,68.34
2018-10-18T02:47:40.204Z,68.45
2018-10-18T02:52:32.805Z,67.82
2018-10-18T02:57:25.480Z,68.54
2018-10-18T03:02:18.142Z,68.29
2018-10-18T03:07:10.807Z,68.38
2018-10-18T03:12:03.841Z,68.76
2018-10-18T03:16:56.398Z,68.45
2018-10-18T03:21:49.055Z,68.73
2018-10-18T03:26:41.718Z,68.95
2018-10-18T03:31:34.380Z,68.81
2018-10-18T03:36:27.056Z,69.04
2018-10-18T03:41:19.738Z,69.15
2018-10-18T03:46:12.417Z,69.16
2018-10-18T03:51:05.170Z,69.03
2018-10-18T03:55:57.741Z,68.94
2018-10-18T04:00:50.379Z,69.09
2018-10-18T04:05:43.065Z,69.78
2018-10-18T04:10:35.856Z,69.68
2018-10-18T04:15:28.482Z,69.71
2018-10-18T04:20:21.098Z,70.10
2018-10-18T04:25:13.775Z,69.48
2018-10-18T04:30:06.918Z,69.88
2018-10-18T04:34:59.457Z,70.01
2018-10-18T04:39:52.101Z,69.90
2018-10-18T04:44:44.870Z,69.74
2018-10-18T04:49:37.687Z,70.02
2018-10-18T04:54:30.346Z,70.35
2018-10-18T04:59:22.960Z,70.38
2018-10-18T05:04:16.568Z,70.53
2018-10-18T05:09:09.408Z,70.55
2018-10-18T05:14:01.993Z,70.02
2018-10-18T05:18:54.648Z,70.30
2018-10-18T05:23:47.435Z,70.27
2018-10-18T05:28:40.155Z,70.53
2018-10-18T05:33:32.857Z,70.24
2018-10-18T05:38:25.630Z,70.10
2018-10-18T05:43:18.357Z,70.12
2018-10-18T05:48:10.956Z,70.51
2018-10-18T05:53:03.660Z,70.30
2018-10-18T05:57:56.350Z,70.17
2018-10-18T06:02:49.786Z,70.85
2018-10-18T06:07:42.977Z,70.88
2018-10-18T06:12:35.623Z,70.80
2018-10-18T06:17:28.338Z,70.91
2018-10-18T06:27:24.909Z,71.65
2018-10-18T06:32:17.623Z,71.68
2018-10-18T06:37:10.277Z,71.86
2018-10-18T06:42:02.881Z,71.49
2018-10-18T06:46:55.571Z,71.78
2018-10-18T06:51:48.328Z,71.90
2018-10-18T06:56:40.941Z,72.14
2018-10-18T07:01:33.510Z,71.81
2018-10-18T07:06:26.136Z,72.26
2018-10-18T07:11:18.729Z,71.68
2018-10-18T07:16:11.433Z,72.08
2018-10-18T07:21:04.658Z,71.63
2018-10-18T07:25:57.275Z,71.79
2018-10-18T07:30:50.008Z,71.26
2018-10-18T07:35:42.650Z,71.23
2018-10-18T07:40:35.243Z,72.05
2018-10-18T07:45:27.867Z,72.51
2018-10-18T07:50:20.458Z,72.45
2018-10-18T07:55:13.074Z,72.66
2018-10-18T08:00:08.760Z,72.50
2018-10-18T08:05:01.275Z,73.11
2018-10-18T08:09:53.937Z,72.43
2018-10-18T08:14:46.522Z,71.11
2018-10-18T08:19:39.154Z,72.12
2018-10-18T08:24:31.846Z,71.02
2018-10-18T08:29:24.498Z,71.10
2018-10-18T08:34:17.123Z,70.43
2018-10-18T08:39:10.502Z,69.46
2018-10-18T08:44:03.350Z,68.94
2018-10-18T08:48:55.977Z,68.68
2018-10-18T08:53:48.634Z,68.33
2018-10-18T08:58:41.234Z,66.62
2018-10-18T09:03:33.880Z,66.69
2018-10-18T09:08:26.529Z,65.30
2018-10-18T09:13:19.275Z,64.51
2018-10-18T09:18:11.829Z,64.30
2018-10-18T09:23:05.048Z,63.28
2018-10-18T09:27:57.706Z,62.45
2018-10-18T09:32:50.262Z,61.72
2018-10-18T09:37:42.886Z,60.95
2018-10-18T09:42:35.454Z,60.83
2018-10-18T09:47:28.098Z,59.07
2018-10-18T09:52:20.721Z,59.59
2018-10-18T09:57:13.362Z,58.26
2018-10-18T10:02:11.797Z,57.98
2018-10-18T10:07:04.736Z,56.44
2018-10-18T10:11:57.313Z,56.18
2018-10-18T10:16:49.894Z,55.94
2018-10-18T10:21:42.541Z,55.54
2018-10-18T10:26:35.086Z,55.83
2018-10-18T10:31:28.003Z,55.63
2018-10-18T10:36:20.617Z,54.33
2018-10-18T10:41:13.228Z,54.05
2018-10-18T10:46:05.831Z,53.05
2018-10-18T10:50:58.482Z,54.35
2018-10-18T10:55:51.294Z,53.85
2018-10-18T11:01:22.475Z,53.80
2018-10-18T11:06:15.216Z,53.42
2018-10-18T11:11:08.053Z,54.24
2018-10-18T11:16:01.654Z,54.45
2018-10-18T11:20:54.266Z,54.41
2018-10-18T11:25:46.850Z,54.69
2018-10-18T11:30:39.449Z,54.80
2018-10-18T11:35:32.020Z,55.55
2018-10-18T11:40:24.671Z,55.39
2018-10-18T11:45:17.348Z,56.09
2018-10-18T11:50:10.027Z,56.01
2018-10-18T11:55:02.673Z,55.95
2018-10-18T11:59:55.321Z,56.88
2018-10-18T12:04:47.925Z,56.57
2018-10-18T12:09:40.676Z,56.67
2018-10-18T12:14:33.262Z,56.73
2018-10-18T12:19:25.890Z,56.48
2018-10-18T12:24:18.478Z,56.50
2018-10-18T12:29:11.258Z,56.53
2018-10-18T12:34:04.156Z,56.97
2018-10-18T12:38:56.713Z,57.51
2018-10-18T12:43:49.287Z,57.38
2018-10-18T12:48:42.106Z,57.78
2018-10-18T12:53:34.742Z,58.53
2018-10-18T12:58:27.422Z,58.48
2018-10-18T13:03:20.069Z,59.54
2018-10-18T13:08:12.811Z,59.70
2018-10-18T13:13:05.397Z,60.32
2018-10-18T13:17:58.169Z,60.57
2018-10-18T13:22:51.027Z,60.02
2018-10-18T13:27:43.757Z,60.98
2018-10-18T13:32:36.463Z,60.72
2018-10-18T13:37:29.246Z,61.24
2018-10-18T13:42:21.934Z,61.36
2018-10-18T13:47:14.902Z,61.69
2018-10-18T13:52:07.562Z,62.71
2018-10-18T13:57:00.158Z,62.78
2018-10-18T14:01:52.818Z,62.98
2018-10-18T14:06:45.624Z,63.46
2018-10-18T14:11:38.343Z,63.76
2018-10-18T14:16:30.953Z,63.56
2018-10-18T14:21:23.656Z,63.53
2018-10-18T14:26:16.684Z,63.85
2018-10-18T14:31:09.218Z,64.15
2018-10-18T14:36:01.846Z,65.01
2018-10-18T14:40:54.592Z,64.62
2018-10-18T14:45:47.439Z,65.81
2018-10-18T14:50:40.195Z,65.45
2018-10-18T14:55:33.081Z,65.89
2018-10-18T15:00:25.888Z,66.19
2018-10-18T15:05:18.633Z,66.75
2018-10-18T15:10:12.309Z,66.87
2018-10-18T15:15:06.571Z,66.93
2018-10-18T15:19:59.165Z,66.83
2018-10-18T15:24:51.757Z,67.11
2018-10-18T15:29:44.434Z,67.65
2018-10-18T15:34:37.113Z,67.87
2018-10-18T15:39:29.807Z,68.05
2018-10-18T15:44:22.693Z,67.59
2018-10-18T15:49:15.181Z,68.47
2018-10-18T15:54:07.877Z,68.54
2018-10-18T15:59:00.462Z,68.23
2018-10-18T16:03:53.055Z,68.76
2018-10-18T16:08:45.625Z,69.57
2018-10-18T16:13:38.313Z,69.46
2018-10-18T16:18:30.848Z,69.38
2018-10-18T16:23:23.500Z,70.57
2018-10-18T16:28:16.084Z,70.29
2018-10-18T16:33:08.934Z,70.59
2018-10-18T16:38:01.530Z,71.60
2018-10-18T16:42:54.098Z,71.68
2018-10-18T16:47:46.725Z,72.18
2018-10-18T16:52:39.633Z,73.32
2018-10-18T16:57:32.496Z,73.28
2018-10-18T17:02:25.015Z,73.13
2018-10-18T17:07:17.598Z,73.20
2018-10-18T17:12:10.372Z,73.76
2018-10-18T17:17:02.995Z,74.07
2018-10-18T17:21:55.508Z,73.83
2018-10-18T17:26:48.139Z,73.64
2018-10-18T17:31:40.637Z,73.57
2018-10-18T17:36:33.194Z,73.52
2018-10-18T17:41:26.110Z,73.58
2018-10-18T17:46:18.776Z,72.91
2018-10-18T17:51:11.454Z,73.71
2018-10-18T17:56:04.527Z,73.03
2018-10-18T18:00:57.142Z,72.73
2018-10-18T18:05:50.402Z,72.72
2018-10-18T18:10:43.173Z,72.68
2018-10-18T18:15:35.760Z,72.84
2018-10-18T18:20:28.401Z,72.62
2018-10-18T18:25:20.976Z,72.48
2018-10-18T18:30:14.641Z,72.57
2018-10-18T18:35:07.475Z,72.02
2018-10-18T18:40:00.130Z,71.84
2018-10-18T18:44:58.515Z,71.69
2018-10-18T18:49:51.247Z,71.48
2018-10-18T18:54:44.017Z,71.77
2018-10-18T18:59:36.609Z,71.08
2018-10-18T19:04:29.212Z,71.74
2018-10-18T19:09:21.881Z,70.88
2018-10-18T19:14:14.606Z,71.20
2018-10-18T19:19:07.277Z,70.59
2018-10-18T19:23:59.968Z,70.17
2018-10-18T19:28:52.579Z,69.73
2018-10-18T19:33:45.341Z,69.53
2018-10-18T19:38:38.148Z,69.68
2018-10-18T19:43:30.763Z,69.31
2018-10-18T19:48:23.450Z,69.28
2018-10-18T19:53:17.247Z,69.37
2018-10-18T19:58:10.328Z,68.94
2018-10-18T20:03:03.079Z,69.09
2018-10-18T20:07:55.847Z,69.02
2018-10-18T20:12:48.489Z,69.48
2018-10-18T20:17:41.197Z,69.42
2018-10-18T20:22:33.748Z,69.05
2018-10-18T20:27:26.654Z,69.48
2018-10-18T20:32:19.434Z,69.52
2018-10-18T20:37:12.067Z,69.45
2018-10-18T20:42:05.048Z,69.13
2018-10-18T20:46:57.982Z,68.71
2018-10-18T20:51:50.484Z,68.85
2018-10-18T20:56:43.097Z,68.83
2018-10-18T21:01:35.727Z,68.31
2018-10-18T21:06:28.641Z,68.19
2018-10-18T21:11:21.216Z,67.79
2018-10-18T21:16:13.817Z,68.03
2018-10-18T21:21:06.479Z,67.83
2018-10-18T21:25:59.265Z,66.51
2018-10-18T21:30:51.869Z,66.29
2018-10-18T21:35:44.466Z,65.52
2018-10-18T21:40:37.080Z,64.88
2018-10-18T21:45:29.845Z,64.77
2018-10-18T21:50:22.502Z,63.78
2018-10-18T21:55:15.130Z,63.36
2018-10-18T22:00:13.999Z,63.53
2018-10-18T22:05:06.720Z,62.70
2018-10-18T22:09:59.309Z,61.73
2018-10-18T22:14:51.963Z,61.31
2018-10-18T22:19:44.766Z,61.33
2018-10-18T22:24:37.413Z,61.24
2018-10-18T22:29:30.035Z,60.47
2018-10-18T22:34:22.718Z,61.16
2018-10-18T22:39:15.278Z,60.25
2018-10-18T22:44:08.439Z,60.98
2018-10-18T22:49:01.080Z,60.68
2018-10-18T22:53:53.693Z,61.04
2018-10-18T22:58:46.380Z,60.76
2018-10-18T23:03:39.014Z,61.36
2018-10-18T23:08:31.732Z,61.33
2018-10-18T23:13:24.507Z,61.37
2018-10-18T23:18:17.159Z,61.44
2018-10-18T23:23:10.570Z,61.65
2018-10-18T23:28:03.237Z,61.85
2018-10-18T23:32:55.886Z,61.98
2018-10-18T23:37:48.537Z,62.64
2018-10-18T23:42:41.171Z,62.34
2018-10-18T23:47:33.758Z,62.21
2018-10-18T23:52:26.351Z,62.86
2018-10-18T23:57:19.026Z,63.09
